X  Chiuso Dati meteorologici dell'aviazione (METAR)     LIML Milano Linate Airport
Temperatura
6°C Temperatura
6°C Punto di rugiada
100% Umidità



Vento
8 KM/O
5 MPH
2 M/S
4 KTS



250°
OSO
Condizioni attuali

Nebbia Nebbia
Pressione 1007.92 (hPa) - 29.76 (inHg)
Visibilità 1.9 (miglio) - 3 (km)
Aeroporto
Codice-Aeroporto LIML

Posizione: Milano Linate Airport
Distanza: 6 (km)

Metar:
LIML 252050Z 25004KT 3500 BR BKN004 OVC012 06/06 Q1008 NOSIG

Ore: 25-11-2021 21:50 CET